Time;durP1;ratioP1;P1;durP2;ratioP2;P2;SDS_P1;SDS_P2;PMS_P1;PMS_P2;Temp;Humidity;BMP_temperature;BMP_pressure;BME280_temperature;BME280_humidity;BME280_pressure;Samples;Min_cycle;Max_cycle;Signal;HPM_P1;HPM_P2
2022/03/31 00:00:08;;;;;;;0.10;0.10;;;;;;;6.56;72.61;99753.06;5018887;28;20033;-65
2022/03/31 00:02:37;;;;;;;0.10;0.10;;;;;;;6.53;73.26;99746.50;5018688;28;20045;-66
2022/03/31 00:05:03;;;;;;;0.10;0.10;;;;;;;6.47;73.95;99753.25;5006991;28;20385;-66
2022/03/31 00:07:28;;;;;;;0.63;0.28;;;;;;;6.72;72.88;99761.81;4984443;28;20025;-66
2022/03/31 00:09:54;;;;;;;0.20;0.20;;;;;;;6.44;74.48;99755.84;5016376;28;20056;-64
2022/03/31 00:12:19;;;;;;;0.20;0.20;;;;;;;6.56;75.32;99755.75;5008989;28;20037;-66
2022/03/31 00:14:45;;;;;;;0.10;0.10;;;;;;;6.39;76.64;99756.91;5024330;28;20041;-65
2022/03/31 00:17:10;;;;;;;0.20;0.20;;;;;;;6.34;77.73;99767.88;5022537;28;20040;-66
2022/03/31 00:19:37;;;;;;;0.10;0.10;;;;;;;6.38;77.63;99760.72;5017417;28;20060;-66
2022/03/31 00:22:03;;;;;;;0.10;0.10;;;;;;;6.17;78.56;99757.56;5024600;28;20079;-65
2022/03/31 00:24:29;;;;;;;0.52;0.40;;;;;;;6.16;79.36;99761.34;5022827;28;20037;-66
2022/03/31 00:26:54;;;;;;;0.10;0.10;;;;;;;6.12;80.76;99768.50;5026277;28;20037;-66
2022/03/31 00:29:20;;;;;;;0.10;0.10;;;;;;;6.11;81.56;99761.59;5020391;28;20049;-66
2022/03/31 00:31:45;;;;;;;0.10;0.10;;;;;;;6.14;82.73;99767.03;5022513;28;20065;-65
2022/03/31 00:34:11;;;;;;;0.38;0.38;;;;;;;6.26;82.17;99755.47;5015094;28;20052;-64
2022/03/31 00:36:36;;;;;;;0.10;0.10;;;;;;;6.14;82.66;99759.00;5020401;28;20040;-65
2022/03/31 00:39:48;;;;;;;0.10;0.10;;;;;;;6.01;83.24;99756.78;5015564;28;20457;-65
2022/03/31 00:41:47;;;;;;;0.17;0.17;;;;;;;6.05;82.23;99763.78;5021195;28;20037;-65
2022/03/31 00:44:13;;;;;;;0.20;0.20;;;;;;;5.95;83.13;99758.94;5026275;28;20039;-65
2022/03/31 00:46:49;;;;;;;0.20;0.20;;;;;;;5.92;85.07;99750.84;5009048;28;20037;-66
2022/03/31 00:49:16;;;;;;;0.73;0.73;;;;;;;5.99;85.26;99754.47;5003661;28;20100;-66
2022/03/31 00:51:42;;;;;;;0.10;0.10;;;;;;;5.99;85.05;99749.13;5014745;28;20511;-64
2022/03/31 00:54:07;;;;;;;0.20;0.20;;;;;;;5.83;85.66;99743.00;5019443;28;20034;-63
2022/03/31 00:56:33;;;;;;;0.20;0.20;;;;;;;5.89;85.45;99746.19;5023464;28;20435;-65
2022/03/31 00:58:59;;;;;;;0.20;0.20;;;;;;;5.82;86.28;99751.34;5019468;28;20101;-66
2022/03/31 01:01:26;;;;;;;0.10;0.10;;;;;;;5.93;86.06;99745.16;5022862;28;20041;-66
2022/03/31 01:03:51;;;;;;;0.10;0.10;;;;;;;5.92;86.34;99754.28;5027684;28;20087;-66
2022/03/31 01:06:16;;;;;;;0.30;0.20;;;;;;;5.82;86.87;99738.75;5006712;28;20036;-65
2022/03/31 01:08:42;;;;;;;0.30;0.30;;;;;;;5.82;87.63;99733.44;5029500;28;20519;-66
2022/03/31 01:11:07;;;;;;;0.10;0.10;;;;;;;5.66;89.07;99735.31;5006926;28;20104;-66
2022/03/31 01:13:33;;;;;;;0.10;0.10;;;;;;;5.60;89.96;99727.88;5030407;28;20050;-66
2022/03/31 01:15:58;;;;;;;0.10;0.10;;;;;;;5.65;89.72;99735.66;5007481;28;20048;-66
2022/03/31 01:18:25;;;;;;;0.47;0.47;;;;;;;5.70;89.01;99730.06;5028036;28;20071;-65
2022/03/31 01:20:50;;;;;;;0.10;0.10;;;;;;;5.49;89.46;99717.75;5023705;28;20048;-63
2022/03/31 01:23:16;;;;;;;0.10;0.10;;;;;;;5.47;91.05;99729.88;5028566;28;20480;-65
2022/03/31 01:25:42;;;;;;;0.10;0.10;;;;;;;5.46;91.35;99721.09;5026423;28;20045;-65
2022/03/31 01:28:08;;;;;;;0.10;0.10;;;;;;;5.51;91.94;99720.06;5007195;28;20485;-66
2022/03/31 01:30:34;;;;;;;0.10;0.10;;;;;;;5.42;91.10;99709.53;5021511;28;20407;-63
2022/03/31 01:33:00;;;;;;;0.10;0.10;;;;;;;5.41;91.68;99716.00;5004778;28;20041;-66
2022/03/31 01:35:25;;;;;;;0.20;0.20;;;;;;;5.43;92.12;99711.09;5029953;28;20041;-64
2022/03/31 01:37:51;;;;;;;0.10;0.10;;;;;;;5.37;92.90;99707.13;5025304;28;20102;-65
2022/03/31 01:40:17;;;;;;;0.10;0.10;;;;;;;5.53;92.70;99697.22;5023128;28;20021;-63
2022/03/31 01:42:43;;;;;;;0.10;0.10;;;;;;;5.50;92.16;99697.91;5030473;28;20573;-65
2022/03/31 01:45:11;;;;;;;0.20;0.20;;;;;;;5.38;92.06;99690.00;5025868;28;20026;-65
2022/03/31 01:47:38;;;;;;;0.13;0.13;;;;;;;5.40;92.68;99690.41;5022913;28;20049;-65
2022/03/31 01:50:04;;;;;;;0.08;0.08;;;;;;;5.41;92.50;99692.00;5031098;28;20496;-65
2022/03/31 01:52:30;;;;;;;0.10;0.10;;;;;;;5.42;92.89;99704.19;5028121;28;20442;-65
2022/03/31 01:54:55;;;;;;;0.10;0.10;;;;;;;5.34;92.80;99693.72;5027502;28;20029;-64
2022/03/31 01:57:21;;;;;;;0.20;0.20;;;;;;;5.28;92.76;99695.81;5001674;28;20386;-64
2022/03/31 01:59:46;;;;;;;0.40;0.40;;;;;;;5.37;93.07;99696.47;5031453;28;20052;-66
2022/03/31 02:02:13;;;;;;;0.10;0.10;;;;;;;5.37;92.56;99701.78;5013695;28;20036;-67
2022/03/31 02:04:40;;;;;;;0.30;0.30;;;;;;;5.33;91.60;99695.59;5029270;28;20488;-67
2022/03/31 02:07:06;;;;;;;0.10;0.10;;;;;;;5.40;91.58;99692.34;5016334;28;20068;-66
2022/03/31 02:09:32;;;;;;;0.30;0.30;;;;;;;5.20;91.83;99698.69;5024394;28;20029;-65
2022/03/31 02:11:58;;;;;;;0.15;0.15;;;;;;;5.20;92.78;99701.34;5026991;28;20029;-64
2022/03/31 02:14:24;;;;;;;0.13;0.13;;;;;;;5.23;91.89;99698.75;5011764;28;20472;-64
2022/03/31 02:16:49;;;;;;;0.20;0.20;;;;;;;5.08;92.70;99701.41;5027854;28;20091;-65
2022/03/31 02:19:15;;;;;;;0.10;0.10;;;;;;;5.24;93.07;99695.00;5026848;28;20061;-65
2022/03/31 02:21:40;;;;;;;0.20;0.20;;;;;;;5.31;92.05;99703.16;5028874;28;20025;-65
2022/03/31 02:24:08;;;;;;;0.10;0.10;;;;;;;5.25;91.66;99693.84;5030173;28;20040;-63
2022/03/31 02:26:34;;;;;;;0.10;0.10;;;;;;;5.19;92.38;99692.56;5022170;28;20030;-65
2022/03/31 02:29:00;;;;;;;0.10;0.10;;;;;;;5.12;93.00;99680.94;5030674;28;20029;-66
2022/03/31 02:31:25;;;;;;;0.30;0.30;;;;;;;4.99;93.58;99695.44;5025125;28;20029;-64
2022/03/31 02:33:51;;;;;;;0.32;0.32;;;;;;;4.99;93.21;99690.13;5029412;28;20041;-65
2022/03/31 02:36:16;;;;;;;0.85;0.45;;;;;;;4.94;93.50;99693.78;5027627;28;20021;-65
2022/03/31 02:38:43;;;;;;;0.10;0.10;;;;;;;4.89;93.67;99687.94;5022901;28;20636;-66
2022/03/31 02:41:08;;;;;;;0.10;0.10;;;;;;;4.80;94.46;99690.75;5029824;28;20041;-66
2022/03/31 02:43:34;;;;;;;0.10;0.10;;;;;;;4.85;94.35;99689.72;5024931;28;20033;-63
2022/03/31 02:45:59;;;;;;;0.30;0.30;;;;;;;4.78;94.46;99690.31;5023459;28;20037;-65
2022/03/31 02:48:26;;;;;;;0.40;0.40;;;;;;;4.72;95.23;99683.69;5027713;28;20033;-65
2022/03/31 02:50:51;;;;;;;0.10;0.10;;;;;;;4.86;94.30;99681.38;5028378;28;20041;-66
2022/03/31 02:56:01;;;;;;;0.10;0.10;;;;;;;4.65;95.57;99686.13;5025810;28;20025;-63
2022/03/31 02:58:27;;;;;;;0.10;0.10;;;;;;;4.81;94.40;99684.31;5027451;28;20488;-65
2022/03/31 03:00:52;;;;;;;0.10;0.10;;;;;;;4.72;95.11;99673.03;5024940;28;20034;-65
2022/03/31 03:03:19;;;;;;;0.10;0.10;;;;;;;4.87;93.60;99671.50;5027894;28;20037;-64
2022/03/31 03:05:45;;;;;;;0.20;0.20;;;;;;;4.62;94.30;99681.50;5028165;28;20412;-65
2022/03/31 03:08:11;;;;;;;0.20;0.20;;;;;;;4.55;94.23;99687.38;5027944;28;20021;-65
2022/03/31 03:10:37;;;;;;;0.25;0.25;;;;;;;4.34;95.16;99686.00;5024560;28;20037;-64
2022/03/31 03:13:03;;;;;;;0.10;0.10;;;;;;;4.26;95.42;99678.91;5019732;28;20178;-64
2022/03/31 03:15:28;;;;;;;0.60;0.60;;;;;;;4.14;97.63;99681.63;5028903;28;20033;-64
2022/03/31 03:17:54;;;;;;;0.10;0.10;;;;;;;4.24;97.96;99689.91;5027538;28;20104;-64
2022/03/31 03:20:20;;;;;;;0.10;0.10;;;;;;;4.22;97.20;99689.47;5025520;28;20044;-63
2022/03/31 03:22:47;;;;;;;0.10;0.10;;;;;;;4.26;97.54;99685.03;5028963;28;20040;-64
2022/03/31 03:25:15;;;;;;;0.13;0.13;;;;;;;4.11;97.98;99680.41;5013535;28;20383;-65
2022/03/31 03:27:42;;;;;;;0.10;0.10;;;;;;;4.11;98.38;99682.28;5009866;28;20116;-65
2022/03/31 03:30:08;;;;;;;0.10;0.10;;;;;;;4.07;99.80;99686.72;5028555;28;20473;-64
2022/03/31 03:32:36;;;;;;;0.10;0.10;;;;;;;4.23;98.82;99672.38;5021163;28;20037;-65
2022/03/31 03:35:04;;;;;;;0.22;0.22;;;;;;;4.02;98.63;99678.97;5011790;28;20029;-63
2022/03/31 03:37:29;;;;;;;0.10;0.10;;;;;;;3.96;99.92;99686.41;5016014;28;20037;-63
2022/03/31 03:39:55;;;;;;;0.10;0.10;;;;;;;3.78;100.00;99685.09;5014213;28;20040;-65
2022/03/31 03:42:20;;;;;;;0.20;0.20;;;;;;;3.84;100.00;99691.75;4996259;28;20441;-65
2022/03/31 03:44:46;;;;;;;0.10;0.10;;;;;;;3.76;100.00;99686.50;5012330;28;20040;-63
2022/03/31 03:47:11;;;;;;;0.10;0.10;;;;;;;3.73;100.00;99693.31;5020050;28;20045;-63
2022/03/31 03:49:36;;;;;;;0.10;0.10;;;;;;;3.88;100.00;99686.53;5028682;28;20112;-65
2022/03/31 03:52:02;;;;;;;0.25;0.25;;;;;;;3.85;100.00;99690.66;5009893;28;20440;-64
2022/03/31 03:54:28;;;;;;;0.10;0.10;;;;;;;4.00;100.00;99687.31;5016522;28;20496;-64
2022/03/31 03:56:53;;;;;;;0.10;0.10;;;;;;;3.83;100.00;99698.19;5018896;28;20063;-62
2022/03/31 03:59:19;;;;;;;0.10;0.10;;;;;;;3.83;100.00;99697.41;5006186;28;20500;-63
2022/03/31 04:01:44;;;;;;;0.10;0.10;;;;;;;3.99;100.00;99690.31;5013185;28;20473;-64
2022/03/31 04:04:10;;;;;;;0.20;0.20;;;;;;;3.86;100.00;99688.75;5016071;28;20037;-64
2022/03/31 04:06:36;;;;;;;0.10;0.10;;;;;;;3.91;100.00;99693.84;5004328;28;20033;-64
2022/03/31 04:09:03;;;;;;;0.10;0.10;;;;;;;3.83;100.00;99700.84;5024161;28;20056;-64
2022/03/31 04:11:28;;;;;;;0.10;0.10;;;;;;;3.78;100.00;99693.06;5026370;28;20033;-64
2022/03/31 04:13:54;;;;;;;0.10;0.10;;;;;;;3.87;100.00;99693.72;5021409;28;20037;-64
2022/03/31 04:16:19;;;;;;;0.10;0.10;;;;;;;3.95;100.00;99700.81;5027791;28;20033;-65
2022/03/31 04:18:45;;;;;;;0.32;0.32;;;;;;;3.91;100.00;99702.59;5007991;28;20488;-65
2022/03/31 04:21:10;;;;;;;0.13;0.13;;;;;;;3.87;100.00;99688.41;5023813;28;20025;-64
2022/03/31 04:23:36;;;;;;;0.10;0.10;;;;;;;3.92;100.00;99695.41;5026088;28;20048;-64
2022/03/31 04:26:02;;;;;;;0.10;0.10;;;;;;;3.76;100.00;99700.59;5024185;28;20036;-64
2022/03/31 04:28:27;;;;;;;0.20;0.20;;;;;;;3.85;100.00;99695.19;5019857;28;20488;-65
2022/03/31 04:30:54;;;;;;;0.10;0.10;;;;;;;3.81;100.00;99699.63;5007034;28;20030;-65
2022/03/31 04:33:20;;;;;;;0.10;0.10;;;;;;;3.68;100.00;99696.94;5018766;28;20037;-64
2022/03/31 04:35:46;;;;;;;0.10;0.10;;;;;;;3.55;100.00;99700.72;5019375;28;20044;-65
2022/03/31 04:38:11;;;;;;;0.20;0.20;;;;;;;3.56;100.00;99704.91;5022396;28;20472;-63
2022/03/31 04:40:37;;;;;;;0.10;0.10;;;;;;;3.52;100.00;99703.28;5025086;28;20033;-65
2022/03/31 04:43:02;;;;;;;0.10;0.10;;;;;;;3.56;100.00;99706.81;5019884;28;20125;-65
2022/03/31 04:45:27;;;;;;;0.20;0.20;;;;;;;3.63;100.00;99704.38;5027164;28;20029;-65
2022/03/31 04:47:53;;;;;;;0.20;0.20;;;;;;;3.62;100.00;99706.25;5019995;28;20507;-64
2022/03/31 04:50:19;;;;;;;0.10;0.10;;;;;;;3.41;100.00;99702.91;5019301;28;20034;-65
2022/03/31 04:52:44;;;;;;;2.17;0.45;;;;;;;3.63;100.00;99704.38;5018373;28;20309;-64
2022/03/31 04:55:10;;;;;;;0.15;0.15;;;;;;;3.53;100.00;99708.25;5017019;28;20622;-64
2022/03/31 04:57:36;;;;;;;0.10;0.10;;;;;;;3.59;100.00;99704.28;5016126;28;20101;-64
2022/03/31 05:00:03;;;;;;;0.10;0.10;;;;;;;3.50;100.00;99714.22;5001896;28;20488;-64
2022/03/31 05:02:28;;;;;;;0.38;0.38;;;;;;;3.48;100.00;99708.44;5005824;28;20030;-64
2022/03/31 05:04:54;;;;;;;0.10;0.10;;;;;;;3.41;100.00;99712.75;5008995;28;20036;-65
2022/03/31 05:07:19;;;;;;;0.10;0.10;;;;;;;3.25;100.00;99717.94;5012795;28;20033;-64
2022/03/31 05:09:45;;;;;;;0.10;0.10;;;;;;;3.41;100.00;99718.88;5006542;28;20077;-65
2022/03/31 05:12:12;;;;;;;0.10;0.10;;;;;;;3.37;100.00;99723.28;5026676;28;20029;-64
2022/03/31 05:14:38;;;;;;;0.10;0.10;;;;;;;3.28;100.00;99719.19;5017341;28;20120;-65
2022/03/31 05:17:05;;;;;;;0.25;0.25;;;;;;;3.39;100.00;99723.75;5014195;28;20144;-65
2022/03/31 05:19:31;;;;;;;0.25;0.25;;;;;;;3.44;100.00;99725.44;5011720;28;20130;-64
2022/03/31 05:21:56;;;;;;;0.10;0.10;;;;;;;3.39;100.00;99725.63;5016226;28;20053;-65
2022/03/31 05:24:22;;;;;;;0.10;0.10;;;;;;;3.48;100.00;99727.06;5017271;28;20036;-64
2022/03/31 05:26:48;;;;;;;0.15;0.15;;;;;;;3.33;100.00;99725.06;5022809;28;20404;-64
2022/03/31 05:29:13;;;;;;;0.10;0.10;;;;;;;3.12;100.00;99716.38;5026481;28;20026;-64
2022/03/31 05:31:40;;;;;;;0.10;0.10;;;;;;;3.24;100.00;99711.09;5015532;28;20435;-63
2022/03/31 05:34:05;;;;;;;0.10;0.10;;;;;;;3.12;100.00;99721.69;4998878;28;20046;-64
2022/03/31 05:36:31;;;;;;;0.13;0.13;;;;;;;3.08;100.00;99726.09;5004835;28;20113;-65
2022/03/31 05:38:56;;;;;;;0.20;0.20;;;;;;;3.12;100.00;99726.22;5021106;28;20037;-66
2022/03/31 05:41:23;;;;;;;0.10;0.10;;;;;;;3.07;100.00;99721.13;5022331;28;20025;-63
2022/03/31 05:43:49;;;;;;;0.10;0.10;;;;;;;3.09;100.00;99717.03;5028059;28;20511;-63
2022/03/31 05:46:14;;;;;;;0.10;0.10;;;;;;;3.15;100.00;99717.59;5022652;28;20026;-62
2022/03/31 05:48:40;;;;;;;0.30;0.30;;;;;;;3.06;100.00;99728.31;5014720;28;20361;-61
2022/03/31 05:51:07;;;;;;;0.20;0.20;;;;;;;2.99;100.00;99729.94;5016575;28;20507;-66
2022/03/31 05:53:33;;;;;;;0.10;0.10;;;;;;;3.00;100.00;99742.91;5012957;28;20049;-64
2022/03/31 05:55:59;;;;;;;0.10;0.10;;;;;;;3.08;100.00;99736.72;5011328;28;20084;-63
2022/03/31 05:58:24;;;;;;;0.10;0.10;;;;;;;3.19;100.00;99747.75;5026912;28;20029;-66
2022/03/31 06:00:52;;;;;;;0.10;0.10;;;;;;;3.25;100.00;99747.19;5006307;28;20046;-66
2022/03/31 06:03:21;;;;;;;0.20;0.20;;;;;;;3.38;100.00;99750.69;5023114;28;20057;-65
2022/03/31 06:05:46;;;;;;;0.10;0.10;;;;;;;3.28;100.00;99746.56;4991499;28;20051;-65
2022/03/31 06:08:12;;;;;;;0.10;0.10;;;;;;;3.16;100.00;99745.72;5020595;28;20514;-65
2022/03/31 06:10:37;;;;;;;0.10;0.10;;;;;;;3.13;100.00;99744.53;5020387;28;20116;-66
2022/03/31 06:13:03;;;;;;;0.20;0.20;;;;;;;3.24;100.00;99750.19;5019167;28;20084;-65
2022/03/31 06:15:29;;;;;;;0.65;0.65;;;;;;;3.19;100.00;99755.72;5019752;28;20080;-65
2022/03/31 06:17:55;;;;;;;0.22;0.22;;;;;;;3.08;100.00;99751.94;5008554;28;20029;-65
2022/03/31 06:20:21;;;;;;;0.10;0.10;;;;;;;3.07;100.00;99745.03;5023550;28;20038;-66
2022/03/31 06:22:46;;;;;;;0.10;0.10;;;;;;;3.16;100.00;99759.81;5027831;28;20036;-65
2022/03/31 06:25:14;;;;;;;0.10;0.10;;;;;;;3.17;100.00;99749.97;5021693;28;20029;-67
2022/03/31 06:27:40;;;;;;;0.10;0.10;;;;;;;3.15;100.00;99755.63;5018815;28;20068;-64
2022/03/31 06:30:06;;;;;;;0.10;0.10;;;;;;;3.21;100.00;99761.50;5016898;28;21006;-63
2022/03/31 06:32:32;;;;;;;0.10;0.10;;;;;;;3.25;100.00;99768.47;4990275;28;20044;-64
2022/03/31 06:34:59;;;;;;;0.10;0.10;;;;;;;3.17;100.00;99774.69;5013222;28;20037;-63
2022/03/31 06:37:25;;;;;;;0.10;0.10;;;;;;;3.06;100.00;99770.84;5004012;28;20037;-65
2022/03/31 06:39:51;;;;;;;0.32;0.32;;;;;;;3.08;100.00;99773.97;5009476;28;20029;-63
2022/03/31 06:42:16;;;;;;;0.10;0.10;;;;;;;3.09;100.00;99777.41;5002426;28;20083;-65
2022/03/31 06:44:42;;;;;;;0.10;0.10;;;;;;;3.08;100.00;99768.63;5000479;28;20547;-64
2022/03/31 06:47:07;;;;;;;0.10;0.10;;;;;;;3.08;99.88;99786.50;5010015;28;20037;-64
2022/03/31 06:49:34;;;;;;;0.10;0.10;;;;;;;2.96;100.00;99784.53;5028050;28;20125;-64
2022/03/31 06:52:00;;;;;;;0.20;0.20;;;;;;;2.99;100.00;99786.56;5007442;28;20034;-66
2022/03/31 06:54:27;;;;;;;0.20;0.20;;;;;;;3.04;100.00;99781.03;5025922;28;20366;-67
2022/03/31 06:56:52;;;;;;;0.20;0.20;;;;;;;3.14;100.00;99787.81;5028972;28;20358;-64
2022/03/31 06:59:20;;;;;;;0.10;0.10;;;;;;;3.15;100.00;99787.53;5025014;28;20025;-66
2022/03/31 07:01:48;;;;;;;0.10;0.10;;;;;;;3.04;100.00;99788.25;5012012;28;20042;-66
2022/03/31 07:04:18;;;;;;;0.10;0.10;;;;;;;3.13;100.00;99795.06;4997751;28;20085;-63
2022/03/31 07:06:43;;;;;;;0.10;0.10;;;;;;;3.08;100.00;99794.47;5009366;28;20071;-64
2022/03/31 07:09:09;;;;;;;0.10;0.10;;;;;;;3.16;100.00;99790.94;5026643;28;20048;-65
2022/03/31 07:11:34;;;;;;;0.10;0.10;;;;;;;3.31;100.00;99799.09;5011998;28;20500;-67
2022/03/31 07:14:05;;;;;;;0.20;0.20;;;;;;;3.26;100.00;99795.88;5006889;28;20451;-65
2022/03/31 07:16:31;;;;;;;0.10;0.10;;;;;;;3.22;100.00;99793.09;5019505;28;20044;-67
2022/03/31 07:18:58;;;;;;;0.10;0.10;;;;;;;3.38;99.40;99799.34;5001244;28;20037;-64
2022/03/31 07:21:24;;;;;;;0.10;0.10;;;;;;;3.25;100.00;99805.72;5020356;28;20038;-68
2022/03/31 07:23:52;;;;;;;0.10;0.10;;;;;;;3.22;99.55;99806.38;5027981;28;20029;-64
2022/03/31 07:26:18;;;;;;;0.10;0.10;;;;;;;3.19;99.95;99800.94;5008518;28;20040;-65
2022/03/31 07:28:44;;;;;;;0.57;0.57;;;;;;;3.33;99.55;99804.09;5008596;28;20388;-65
2022/03/31 07:31:32;;;;;;;0.10;0.10;;;;;;;3.46;98.32;99814.47;5021534;28;20477;-66
2022/03/31 07:33:58;;;;;;;0.10;0.10;;;;;;;3.34;99.32;99803.00;5021014;28;20045;-64
2022/03/31 07:36:23;;;;;;;0.10;0.10;;;;;;;3.41;100.00;99804.00;5017787;28;20108;-67
2022/03/31 07:38:49;;;;;;;0.10;0.10;;;;;;;3.43;99.57;99806.34;5003340;28;20037;-63
2022/03/31 07:41:15;;;;;;;0.20;0.20;;;;;;;3.52;99.69;99807.81;4998911;28;20036;-64
2022/03/31 07:43:41;;;;;;;0.10;0.10;;;;;;;3.51;99.63;99808.13;5017034;28;20117;-63
2022/03/31 07:46:06;;;;;;;0.20;0.20;;;;;;;3.59;98.59;99808.06;5026394;28;20124;-64
2022/03/31 07:48:31;;;;;;;0.10;0.10;;;;;;;3.44;98.30;99802.59;5010010;28;20095;-66
2022/03/31 07:50:59;;;;;;;0.20;0.20;;;;;;;3.56;97.09;99800.72;5002826;28;20091;-65
2022/03/31 07:53:32;;;;;;;0.10;0.10;;;;;;;3.50;98.45;99801.28;5026143;28;20048;-64
2022/03/31 07:55:59;;;;;;;0.10;0.10;;;;;;;3.67;98.12;99801.09;5026561;28;20138;-66
2022/03/31 07:58:25;;;;;;;0.10;0.10;;;;;;;3.70;97.41;99799.66;5022358;28;20115;-64
2022/03/31 08:00:52;;;;;;;0.20;0.20;;;;;;;3.66;96.43;99804.84;5017873;28;20504;-64
2022/03/31 08:03:18;;;;;;;0.10;0.10;;;;;;;3.78;96.09;99801.44;5027192;28;20112;-64
2022/03/31 08:05:45;;;;;;;0.10;0.10;;;;;;;3.54;96.66;99804.84;5027163;28;20037;-64
2022/03/31 08:08:10;;;;;;;0.10;0.10;;;;;;;3.60;97.68;99804.28;5007865;28;20095;-64
2022/03/31 08:10:36;;;;;;;0.10;0.10;;;;;;;3.84;96.45;99811.53;5024494;28;20041;-65
2022/03/31 08:13:02;;;;;;;0.10;0.10;;;;;;;3.83;96.62;99804.69;5027917;28;20041;-64
2022/03/31 08:15:27;;;;;;;0.10;0.10;;;;;;;3.86;96.64;99817.31;5025637;28;20049;-65
2022/03/31 08:17:52;;;;;;;0.10;0.10;;;;;;;3.97;96.19;99812.34;5006838;28;20040;-66
2022/03/31 08:20:19;;;;;;;0.10;0.10;;;;;;;3.88;95.57;99812.44;5023323;28;20095;-63
2022/03/31 08:22:45;;;;;;;0.00;0.00;;;;;;;3.87;94.97;99812.78;5026629;28;20025;-63
2022/03/31 08:25:12;;;;;;;0.10;0.10;;;;;;;3.96;95.27;99822.22;5024039;28;20149;-65
2022/03/31 08:27:38;;;;;;;0.10;0.10;;;;;;;4.08;94.72;99816.91;5017109;28;20048;-66
2022/03/31 08:30:07;;;;;;;0.10;0.10;;;;;;;4.23;94.94;99821.59;4998629;28;20021;-65
2022/03/31 08:32:35;;;;;;;0.75;0.50;;;;;;;4.26;94.48;99818.25;5013466;28;20037;-64
2022/03/31 08:35:02;;;;;;;0.10;0.10;;;;;;;4.40;93.95;99828.56;5024381;28;20113;-64
2022/03/31 08:37:27;;;;;;;0.10;0.10;;;;;;;4.24;93.24;99822.38;5021404;28;20556;-66
2022/03/31 08:39:53;;;;;;;0.10;0.10;;;;;;;4.31;94.35;99820.69;5005569;28;20065;-63
2022/03/31 08:42:18;;;;;;;0.10;0.10;;;;;;;4.50;94.42;99817.47;5024759;28;20029;-64
2022/03/31 08:44:45;;;;;;;0.10;0.10;;;;;;;4.73;93.58;99829.19;5008270;28;20063;-64
2022/03/31 08:47:12;;;;;;;0.25;0.25;;;;;;;4.91;92.52;99822.50;4994645;28;20033;-64
2022/03/31 08:49:37;;;;;;;0.10;0.10;;;;;;;4.93;91.30;99820.28;5010076;28;20125;-66
2022/03/31 08:52:04;;;;;;;0.15;0.15;;;;;;;5.05;90.55;99819.47;5009093;28;20144;-64
2022/03/31 08:54:30;;;;;;;0.10;0.10;;;;;;;5.18;91.06;99823.66;5022303;28;20120;-67
2022/03/31 08:56:55;;;;;;;0.10;0.10;;;;;;;5.31;88.30;99825.94;5026801;28;20184;-64
2022/03/31 08:59:21;;;;;;;0.17;0.17;;;;;;;5.22;88.47;99827.19;5023117;28;20132;-66
2022/03/31 09:01:46;;;;;;;0.40;0.40;;;;;;;5.40;85.33;99829.22;5017592;28;20172;-65
2022/03/31 09:04:19;;;;;;;0.10;0.10;;;;;;;5.44;85.96;99830.09;5018241;28;20025;-64
2022/03/31 09:06:48;;;;;;;0.10;0.10;;;;;;;5.48;86.66;99835.53;5015135;28;20391;-65
2022/03/31 09:09:14;;;;;;;0.10;0.10;;;;;;;5.37;84.12;99829.91;5014221;28;20463;-64
2022/03/31 09:11:45;;;;;;;0.10;0.10;;;;;;;5.39;84.79;99837.59;5015512;28;20113;-64
2022/03/31 09:14:10;;;;;;;0.10;0.10;;;;;;;5.56;84.53;99833.81;5020735;28;20037;-64
2022/03/31 09:16:41;;;;;;;0.10;0.10;;;;;;;5.80;81.29;99831.81;5016381;28;20039;-63
2022/03/31 09:19:11;;;;;;;0.35;0.35;;;;;;;5.78;82.43;99827.94;5025091;28;20167;-64
2022/03/31 09:21:58;;;;;;;0.10;0.10;;;;;;;5.95;81.92;99839.09;5020121;28;20044;-64
2022/03/31 09:24:27;;;;;;;0.45;0.45;;;;;;;6.07;81.30;99846.25;5012574;28;20042;-63
2022/03/31 09:26:53;;;;;;;0.10;0.10;;;;;;;6.08;81.22;99834.44;5030670;28;20033;-63
2022/03/31 09:29:23;;;;;;;0.15;0.15;;;;;;;6.19;81.17;99838.91;5031333;28;20124;-64
2022/03/31 09:31:51;;;;;;;0.10;0.10;;;;;;;6.51;79.39;99839.69;5028424;28;20045;-67
2022/03/31 09:34:18;;;;;;;0.10;0.10;;;;;;;6.41;79.67;99839.44;5021883;28;20030;-66
2022/03/31 09:36:52;;;;;;;0.28;0.28;;;;;;;6.52;78.36;99841.25;5024023;28;20025;-68
2022/03/31 09:39:19;;;;;;;0.00;0.00;;;;;;;6.76;77.91;99835.66;5022259;28;20052;-65
2022/03/31 09:41:47;;;;;;;0.30;0.30;;;;;;;6.87;78.24;99834.00;5029727;28;20056;-64
2022/03/31 09:44:16;;;;;;;0.20;0.20;;;;;;;6.96;77.86;99842.63;5026192;28;20377;-64
2022/03/31 09:46:45;;;;;;;0.17;0.17;;;;;;;7.19;75.39;99842.69;5014937;28;20048;-63
2022/03/31 09:49:20;;;;;;;0.20;0.20;;;;;;;7.25;75.54;99831.38;5012526;28;20034;-64
2022/03/31 09:51:51;;;;;;;0.10;0.10;;;;;;;7.24;77.00;99845.09;5027059;28;20041;-64
2022/03/31 09:54:19;;;;;;;0.22;0.22;;;;;;;7.25;76.20;99841.28;5021484;28;20057;-66
2022/03/31 09:56:45;;;;;;;0.10;0.10;;;;;;;7.54;76.72;99847.97;5006375;28;20104;-64
2022/03/31 09:59:12;;;;;;;0.15;0.15;;;;;;;7.62;72.46;99838.94;5030299;28;20061;-65
2022/03/31 10:01:39;;;;;;;0.20;0.20;;;;;;;7.84;70.85;99825.56;5027550;28;20029;-64
2022/03/31 10:04:09;;;;;;;0.10;0.10;;;;;;;7.84;68.51;99830.94;5025050;28;20033;-66
2022/03/31 10:06:36;;;;;;;0.10;0.10;;;;;;;7.84;68.51;99830.94;5030373;28;20040;-65
2022/03/31 10:09:03;;;;;;;0.20;0.20;;;;;;;7.39;65.78;99830.09;5026900;28;20033;-64
2022/03/31 10:11:31;;;;;;;0.20;0.20;;;;;;;7.21;65.58;99849.25;5029845;28;20053;-65
2022/03/31 10:14:21;;;;;;;0.30;0.30;;;;;;;7.13;63.45;99844.88;5028734;28;20606;-68
2022/03/31 10:16:53;;;;;;;0.10;0.10;;;;;;;7.10;63.38;99844.81;5011319;28;20038;-68
2022/03/31 10:19:46;;;;;;;0.10;0.10;;;;;;;7.41;63.22;99835.88;5007881;28;20400;-65
2022/03/31 10:25:08;;;;;;;0.20;0.20;;;;;;;7.64;64.11;99837.47;5027266;28;20057;-64
2022/03/31 10:27:36;;;;;;;0.10;0.10;;;;;;;7.76;65.89;99839.22;5023565;28;20041;-68
2022/03/31 10:30:10;;;;;;;0.10;0.10;;;;;;;7.85;62.31;99831.72;5028670;28;20040;-64
2022/03/31 10:32:35;;;;;;;0.10;0.10;;;;;;;7.99;62.50;99837.31;5010657;28;20060;-68
2022/03/31 10:35:01;;;;;;;0.10;0.10;;;;;;;7.95;58.81;99837.28;5029261;28;20048;-65
2022/03/31 10:37:36;;;;;;;0.10;0.10;;;;;;;7.75;58.91;99841.13;5025859;28;20037;-66
2022/03/31 10:40:06;;;;;;;0.10;0.10;;;;;;;8.02;59.65;99831.22;5006244;28;20037;-66
2022/03/31 10:42:32;;;;;;;0.20;0.20;;;;;;;8.12;61.38;99838.69;5026528;28;20029;-66
2022/03/31 10:45:13;;;;;;;0.30;0.30;;;;;;;8.29;61.81;99830.19;5022898;28;20048;-65
2022/03/31 10:47:43;;;;;;;0.10;0.10;;;;;;;8.29;60.48;99835.53;5026959;28;20119;-66
2022/03/31 10:50:23;;;;;;;0.20;0.20;;;;;;;8.49;59.24;99828.19;5026435;28;20060;-63
2022/03/31 10:53:01;;;;;;;0.10;0.10;;;;;;;8.21;55.62;99833.84;5023059;28;20106;-66
2022/03/31 10:55:38;;;;;;;0.15;0.15;;;;;;;8.23;54.45;99840.41;5011419;28;20060;-65
2022/03/31 10:58:05;;;;;;;0.10;0.10;;;;;;;8.43;56.13;99832.31;5009507;28;20034;-66
2022/03/31 11:00:31;;;;;;;0.10;0.10;;;;;;;8.71;57.98;99838.88;5025858;28;20034;-66
2022/03/31 11:02:56;;;;;;;0.15;0.15;;;;;;;8.70;57.46;99828.50;5006146;28;20037;-66
2022/03/31 11:05:22;;;;;;;0.10;0.10;;;;;;;8.89;56.23;99831.84;5029188;28;20037;-66
2022/03/31 11:07:48;;;;;;;0.10;0.10;;;;;;;8.85;54.74;99831.00;5010033;28;20034;-66
2022/03/31 11:10:15;;;;;;;0.10;0.10;;;;;;;9.00;54.79;99840.81;5028423;28;20099;-65
2022/03/31 11:12:42;;;;;;;0.10;0.10;;;;;;;9.14;54.89;99826.03;5020321;28;20350;-66
2022/03/31 11:15:10;;;;;;;0.10;0.10;;;;;;;9.18;53.95;99816.84;5026611;28;20404;-66
2022/03/31 11:17:37;;;;;;;0.10;0.10;;;;;;;9.25;52.02;99819.66;5010569;28;20041;-66
2022/03/31 11:20:14;;;;;;;0.10;0.10;;;;;;;9.18;52.38;99821.44;5022958;28;20077;-66
2022/03/31 11:22:47;;;;;;;0.10;0.10;;;;;;;9.29;54.49;99817.00;5021444;28;20033;-66
2022/03/31 11:25:13;;;;;;;0.28;0.28;;;;;;;9.31;52.23;99815.47;5023926;28;20056;-66
2022/03/31 11:27:40;;;;;;;0.10;0.10;;;;;;;9.00;50.76;99835.44;5021788;28;20034;-66
2022/03/31 11:30:16;;;;;;;0.20;0.20;;;;;;;8.92;49.93;99814.25;5026626;28;20087;-66
2022/03/31 11:32:42;;;;;;;0.10;0.10;;;;;;;8.91;48.85;99821.50;5004788;28;20025;-66
2022/03/31 11:35:19;;;;;;;0.10;0.10;;;;;;;8.83;48.76;99816.41;5017648;28;20072;-66
2022/03/31 11:37:46;;;;;;;0.10;0.10;;;;;;;8.79;47.38;99824.41;5010423;28;20075;-66
2022/03/31 11:40:16;;;;;;;0.73;0.20;;;;;;;8.75;46.57;99815.53;5004696;28;20081;-66
2022/03/31 11:42:44;;;;;;;0.10;0.10;;;;;;;8.81;47.78;99819.44;5003538;28;20037;-66